Time,TemperatureF,DewpointF,PressureIn,WindDirection,WindDirectionDegrees,WindSpeedMPH,WindSpeedGustMPH,Humidity,HourlyPrecipIn,Conditions,Clouds,dailyrainin,SoftwareType,DateUTC
2013-04-05 00:02:00,45.0,32.0,30.04,SE,138,0.0,3.0,59,0.00,,,0.00,,2013-04-05 05:02:00,
2013-04-05 00:22:00,44.0,31.0,30.04,SE,130,0.0,2.0,61,0.00,,,0.00,,2013-04-05 05:22:00,
2013-04-05 00:32:00,44.0,31.0,30.04,SE,130,0.0,2.0,61,0.00,,,0.00,,2013-04-05 05:32:00,
2013-04-05 00:42:00,44.0,31.0,30.04,SE,130,0.0,2.0,61,0.00,,,0.00,,2013-04-05 05:42:00,
2013-04-05 00:52:00,43.0,31.0,30.03,SE,130,0.0,2.0,63,0.00,,,0.00,,2013-04-05 05:52:00,
2013-04-05 01:02:00,43.0,31.0,30.03,SE,130,0.0,2.0,63,0.00,,,0.00,,2013-04-05 06:02:00,
2013-04-05 01:12:00,43.0,31.0,30.03,SE,130,0.0,2.0,63,0.00,,,0.00,,2013-04-05 06:12:00,
2013-04-05 01:22:00,42.0,31.0,30.03,SE,130,0.0,2.0,64,0.00,,,0.00,,2013-04-05 06:22:00,
2013-04-05 01:32:00,42.0,31.0,30.02,SE,130,0.0,2.0,65,0.00,,,0.00,,2013-04-05 06:32:00,
2013-04-05 01:42:00,42.0,31.0,30.02,SE,130,0.0,2.0,65,0.00,,,0.00,,2013-04-05 06:42:00,
2013-04-05 01:52:00,42.0,31.0,30.02,East,90,0.0,3.0,66,0.00,,,0.00,,2013-04-05 06:52:00,
2013-04-05 02:02:00,42.0,32.0,30.03,SE,143,1.0,3.0,67,0.00,,,0.00,,2013-04-05 07:02:00,
2013-04-05 02:12:00,42.0,32.0,30.03,SE,143,1.0,3.0,67,0.00,,,0.00,,2013-04-05 07:12:00,
2013-04-05 02:22:00,42.0,32.0,30.02,SE,136,0.0,3.0,67,0.00,,,0.00,,2013-04-05 07:22:00,
2013-04-05 02:32:00,41.0,31.0,30.01,SE,136,0.0,4.0,67,0.00,,,0.00,,2013-04-05 07:32:00,
2013-04-05 02:42:00,41.0,31.0,30.01,SE,136,0.0,4.0,67,0.00,,,0.00,,2013-04-05 07:42:00,
2013-04-05 02:53:00,41.0,32.0,30.01,SE,137,0.0,2.0,69,0.00,,,0.00,,2013-04-05 07:53:00,
2013-04-05 03:02:00,40.0,31.0,30.00,SE,145,0.0,3.0,69,0.00,,,0.00,,2013-04-05 08:02:00,
2013-04-05 03:12:00,40.0,31.0,30.00,SE,145,0.0,3.0,69,0.00,,,0.00,,2013-04-05 08:12:00,
2013-04-05 03:22:00,40.0,31.0,30.00,SSE,151,0.0,2.0,70,0.00,,,0.00,,2013-04-05 08:22:00,
2013-04-05 03:32:00,39.0,30.0,30.00,SE,137,0.0,3.0,71,0.00,,,0.00,,2013-04-05 08:32:00,
2013-04-05 03:43:00,39.0,30.0,30.00,SE,137,0.0,3.0,71,0.00,,,0.00,,2013-04-05 08:43:00,
2013-04-05 03:52:00,40.0,32.0,29.99,East,84,1.0,3.0,72,0.00,,,0.00,,2013-04-05 08:52:00,
2013-04-05 04:02:00,40.0,32.0,29.99,SE,132,0.0,2.0,72,0.00,,,0.00,,2013-04-05 09:02:00,
2013-04-05 04:12:00,40.0,32.0,29.99,SE,132,0.0,2.0,72,0.00,,,0.00,,2013-04-05 09:12:00,
2013-04-05 04:22:00,39.0,31.0,29.98,SE,132,0.0,1.0,72,0.00,,,0.00,,2013-04-05 09:22:00,
2013-04-05 04:33:00,39.0,31.0,29.98,SE,132,0.0,1.0,72,0.00,,,0.00,,2013-04-05 09:33:00,
2013-04-05 04:42:00,39.0,31.0,29.98,SE,132,0.0,1.0,72,0.00,,,0.00,,2013-04-05 09:42:00,
2013-04-05 04:53:00,38.0,30.0,29.97,SE,142,0.0,1.0,74,0.00,,,0.00,,2013-04-05 09:53:00,
2013-04-05 05:03:00,38.0,31.0,29.97,SE,142,0.0,2.0,75,0.00,,,0.00,,2013-04-05 10:03:00,
2013-04-05 05:13:00,38.0,31.0,29.97,SE,142,0.0,2.0,75,0.00,,,0.00,,2013-04-05 10:13:00,
2013-04-05 05:23:00,37.0,30.0,29.97,SE,142,0.0,2.0,77,0.00,,,0.00,,2013-04-05 10:23:00,
2013-04-05 05:32:00,37.0,31.0,29.96,South,181,1.0,6.0,78,0.00,,,0.00,,2013-04-05 10:32:00,
2013-04-05 05:42:00,37.0,31.0,29.96,South,181,1.0,6.0,78,0.00,,,0.00,,2013-04-05 10:42:00,
2013-04-05 05:53:00,37.0,31.0,29.95,SE,145,1.0,3.0,79,0.00,,,0.00,,2013-04-05 10:53:00,
2013-04-05 06:02:00,36.0,30.0,29.95,SE,135,1.0,4.0,80,0.00,,,0.00,,2013-04-05 11:02:00,
2013-04-05 06:12:00,36.0,30.0,29.95,SE,135,1.0,4.0,80,0.00,,,0.00,,2013-04-05 11:12:00,
2013-04-05 06:22:00,36.0,30.0,29.96,SSE,152,1.0,5.0,80,0.00,,,0.00,,2013-04-05 11:22:00,
2013-04-05 06:33:00,36.0,30.0,29.96,SSE,152,1.0,5.0,80,0.00,,,0.00,,2013-04-05 11:33:00,
2013-04-05 06:42:00,36.0,30.0,29.96,SSE,152,1.0,5.0,80,0.00,,,0.00,,2013-04-05 11:42:00,
2013-04-05 06:52:00,36.0,31.0,29.95,SE,140,1.0,5.0,82,0.00,,,0.00,,2013-04-05 11:52:00,
2013-04-05 07:02:00,36.0,31.0,29.95,SE,132,2.0,6.0,83,0.00,,,0.00,,2013-04-05 12:02:00,
2013-04-05 07:12:00,36.0,31.0,29.95,SE,132,2.0,6.0,83,0.00,,,0.00,,2013-04-05 12:12:00,
2013-04-05 07:22:00,35.0,31.0,29.94,SE,138,2.0,6.0,84,0.00,,,0.00,,2013-04-05 12:22:00,
2013-04-05 07:32:00,35.0,31.0,29.93,SE,130,1.0,4.0,84,0.00,,,0.00,,2013-04-05 12:32:00,
2013-04-05 07:42:00,35.0,31.0,29.93,SE,130,1.0,4.0,84,0.00,,,0.00,,2013-04-05 12:42:00,
2013-04-05 07:52:00,35.0,31.0,29.93,SSE,148,0.0,4.0,85,0.00,,,0.00,,2013-04-05 12:52:00,
2013-04-05 08:02:00,35.0,31.0,29.93,NNE,12,0.0,3.0,85,0.00,,,0.00,,2013-04-05 13:02:00,
2013-04-05 08:12:00,35.0,31.0,29.93,NNE,12,0.0,3.0,85,0.00,,,0.00,,2013-04-05 13:12:00,
2013-04-05 08:22:00,35.0,31.0,29.93,SE,146,1.0,3.0,86,0.00,,,0.00,,2013-04-05 13:22:00,
2013-04-05 08:32:00,36.0,32.0,29.92,SE,142,2.0,7.0,86,0.00,,,0.00,,2013-04-05 13:32:00,
2013-04-05 08:42:00,36.0,32.0,29.92,SE,142,2.0,7.0,86,0.00,,,0.00,,2013-04-05 13:42:00,
2013-04-05 08:52:00,38.0,34.0,29.92,SE,140,3.0,7.0,85,0.00,,,0.00,,2013-04-05 13:52:00,
2013-04-05 09:03:00,39.0,35.0,29.92,SE,133,3.0,6.0,84,0.00,,,0.00,,2013-04-05 14:03:00,
2013-04-05 09:12:00,39.0,35.0,29.92,SE,133,3.0,6.0,84,0.00,,,0.00,,2013-04-05 14:12:00,
2013-04-05 09:22:00,42.0,36.0,29.91,SSE,161,3.0,9.0,80,0.00,,,0.00,,2013-04-05 14:22:00,
2013-04-05 09:36:00,42.0,36.0,29.91,SSE,161,3.0,9.0,80,0.00,,,0.00,,2013-04-05 14:36:00,
2013-04-05 09:43:00,42.0,36.0,29.91,SSE,161,3.0,9.0,80,0.00,,,0.00,,2013-04-05 14:43:00,
2013-04-05 09:54:00,42.0,36.0,29.91,SSE,161,3.0,9.0,80,0.00,,,0.00,,2013-04-05 14:54:00,
2013-04-05 10:02:00,49.0,38.0,29.89,SSE,161,4.0,11.0,65,0.00,,,0.00,,2013-04-05 15:02:00,
2013-04-05 10:12:00,49.0,38.0,29.89,SSE,161,4.0,11.0,65,0.00,,,0.00,,2013-04-05 15:12:00,
2013-04-05 10:23:00,51.0,37.0,29.88,SE,141,5.0,16.0,59,0.00,,,0.00,,2013-04-05 15:23:00,
2013-04-05 10:33:00,53.0,37.0,29.86,South,175,4.0,11.0,55,0.00,,,0.00,,2013-04-05 15:33:00,
2013-04-05 10:42:00,53.0,37.0,29.86,South,175,4.0,11.0,55,0.00,,,0.00,,2013-04-05 15:42:00,
2013-04-05 11:02:00,57.0,37.0,29.85,SSE,150,3.0,10.0,47,0.00,,,0.00,,2013-04-05 16:02:00,
2013-04-05 11:13:00,57.0,37.0,29.85,SSE,150,3.0,10.0,47,0.00,,,0.00,,2013-04-05 16:13:00,
2013-04-05 11:23:00,57.0,37.0,29.85,SSE,150,3.0,10.0,47,0.00,,,0.00,,2013-04-05 16:23:00,
2013-04-05 11:33:00,58.0,36.0,29.85,SSW,205,7.0,15.0,44,0.00,,,0.00,,2013-04-05 16:33:00,
2013-04-05 11:42:00,58.0,36.0,29.85,SSW,205,7.0,15.0,44,0.00,,,0.00,,2013-04-05 16:42:00,
2013-04-05 11:52:00,59.0,36.0,29.85,SW,231,8.0,18.0,42,0.00,,,0.00,,2013-04-05 16:52:00,
2013-04-05 12:03:00,61.0,36.0,29.83,East,98,4.0,13.0,40,0.00,,,0.00,,2013-04-05 17:03:00,
2013-04-05 12:13:00,61.0,36.0,29.83,East,98,4.0,13.0,40,0.00,,,0.00,,2013-04-05 17:13:00,
2013-04-05 12:23:00,62.0,37.0,29.82,SSE,156,5.0,11.0,40,0.00,,,0.00,,2013-04-05 17:23:00,
2013-04-05 12:32:00,64.0,37.0,29.81,SSE,152,4.0,11.0,36,0.00,,,0.00,,2013-04-05 17:32:00,
2013-04-05 12:45:00,64.0,37.0,29.81,SSE,152,4.0,11.0,36,0.00,,,0.00,,2013-04-05 17:45:00,
2013-04-05 12:52:00,64.0,34.0,29.80,ESE,121,6.0,18.0,33,0.00,,,0.00,,2013-04-05 17:52:00,
2013-04-05 13:02:00,66.0,36.0,29.78,South,185,3.0,14.0,33,0.00,,,0.00,,2013-04-05 18:02:00,
2013-04-05 13:12:00,66.0,36.0,29.78,South,185,3.0,14.0,33,0.00,,,0.00,,2013-04-05 18:12:00,
2013-04-05 13:22:00,68.0,33.0,29.76,NNE,32,4.0,19.0,27,0.00,,,0.00,,2013-04-05 18:22:00,
2013-04-05 13:33:00,69.0,32.0,29.75,ESE,105,5.0,20.0,25,0.00,,,0.00,,2013-04-05 18:33:00,
2013-04-05 13:43:00,69.0,32.0,29.75,ESE,105,5.0,20.0,25,0.00,,,0.00,,2013-04-05 18:43:00,
2013-04-05 13:52:00,70.0,30.0,29.73,SSE,167,6.0,24.0,23,0.00,,,0.00,,2013-04-05 18:52:00,
2013-04-05 14:02:00,70.0,32.0,29.72,South,177,9.0,23.0,24,0.00,,,0.00,,2013-04-05 19:02:00,
2013-04-05 14:13:00,70.0,32.0,29.72,South,177,9.0,23.0,24,0.00,,,0.00,,2013-04-05 19:13:00,
2013-04-05 14:23:00,70.0,32.0,29.72,South,177,9.0,23.0,24,0.00,,,0.00,,2013-04-05 19:23:00,
2013-04-05 14:33:00,70.0,32.0,29.72,South,177,9.0,23.0,24,0.00,,,0.00,,2013-04-05 19:33:00,
2013-04-05 15:22:00,72.0,33.0,29.66,SSE,147,7.0,20.0,24,0.00,,,0.00,,2013-04-05 20:22:00,
2013-04-05 15:33:00,72.0,33.0,29.66,SSE,147,7.0,20.0,24,0.00,,,0.00,,2013-04-05 20:33:00,
2013-04-05 15:42:00,72.0,33.0,29.66,SSE,147,7.0,20.0,24,0.00,,,0.00,,2013-04-05 20:42:00,
2013-04-05 15:52:00,72.0,34.0,29.64,SW,236,8.0,19.0,25,0.00,,,0.00,,2013-04-05 20:52:00,
2013-04-05 16:02:00,72.0,34.0,29.63,SSE,153,5.0,17.0,25,0.00,,,0.00,,2013-04-05 21:02:00,
2013-04-05 16:13:00,72.0,34.0,29.63,SSE,153,5.0,17.0,25,0.00,,,0.00,,2013-04-05 21:13:00,
2013-04-05 16:23:00,74.0,34.0,29.62,SW,214,5.0,14.0,23,0.00,,,0.00,,2013-04-05 21:23:00,
2013-04-05 16:33:00,75.0,34.0,29.60,NNW,329,7.0,17.0,22,0.00,,,0.00,,2013-04-05 21:33:00,
2013-04-05 16:43:00,75.0,34.0,29.60,NNW,329,7.0,17.0,22,0.00,,,0.00,,2013-04-05 21:43:00,
2013-04-05 16:53:00,76.0,34.0,29.59,East,99,6.0,16.0,22,0.00,,,0.00,,2013-04-05 21:53:00,
2013-04-05 17:03:00,75.0,35.0,29.58,SW,221,6.0,17.0,23,0.00,,,0.00,,2013-04-05 22:03:00,
2013-04-05 17:13:00,75.0,35.0,29.58,SW,221,6.0,17.0,23,0.00,,,0.00,,2013-04-05 22:13:00,
2013-04-05 17:23:00,76.0,34.0,29.57,SSW,202,5.0,15.0,22,0.00,,,0.00,,2013-04-05 22:23:00,
2013-04-05 17:33:00,75.0,34.0,29.57,SSW,205,1.0,14.0,22,0.00,,,0.00,,2013-04-05 22:33:00,
2013-04-05 17:43:00,75.0,34.0,29.57,SSW,205,1.0,14.0,22,0.00,,,0.00,,2013-04-05 22:43:00,
2013-04-05 17:52:00,75.0,34.0,29.57,SSE,160,7.0,15.0,22,0.00,,,0.00,,2013-04-05 22:52:00,
2013-04-05 18:02:00,75.0,35.0,29.56,WSW,241,5.0,14.0,23,0.00,,,0.00,,2013-04-05 23:02:00,
2013-04-05 18:12:00,75.0,35.0,29.56,WSW,241,5.0,14.0,23,0.00,,,0.00,,2013-04-05 23:12:00,
2013-04-05 18:22:00,76.0,32.0,29.56,SW,230,4.0,12.0,20,0.00,,,0.00,,2013-04-05 23:22:00,
2013-04-05 18:32:00,75.0,32.0,29.55,NE,38,2.0,15.0,21,0.00,,,0.00,,2013-04-05 23:32:00,
2013-04-05 18:42:00,75.0,32.0,29.55,NE,38,2.0,15.0,21,0.00,,,0.00,,2013-04-05 23:42:00,
2013-04-05 18:52:00,74.0,33.0,29.55,SSE,165,8.0,18.0,22,0.00,,,0.00,,2013-04-05 23:52:00,
2013-04-05 19:02:00,74.0,34.0,29.54,SW,225,5.0,15.0,23,0.00,,,0.00,,2013-04-06 00:02:00,
2013-04-05 19:13:00,74.0,34.0,29.54,SW,225,5.0,15.0,23,0.00,,,0.00,,2013-04-06 00:13:00,
2013-04-05 19:23:00,73.0,33.0,29.54,ESE,117,7.0,16.0,23,0.00,,,0.00,,2013-04-06 00:23:00,
2013-04-05 19:33:00,73.0,34.0,29.54,WSW,238,6.0,13.0,24,0.00,,,0.00,,2013-04-06 00:33:00,
2013-04-05 19:42:00,73.0,34.0,29.54,WSW,238,6.0,13.0,24,0.00,,,0.00,,2013-04-06 00:42:00,
2013-04-05 19:52:00,73.0,33.0,29.54,SSW,200,3.0,14.0,23,0.00,,,0.00,,2013-04-06 00:52:00,
2013-04-05 20:02:00,73.0,33.0,29.54,SSW,200,3.0,14.0,23,0.00,,,0.00,,2013-04-06 01:02:00,
2013-04-05 20:13:00,73.0,33.0,29.54,SSW,200,3.0,14.0,23,0.00,,,0.00,,2013-04-06 01:13:00,
2013-04-05 20:22:00,72.0,33.0,29.54,SSW,198,0.0,4.0,24,0.00,,,0.00,,2013-04-06 01:22:00,
2013-04-05 20:33:00,71.0,33.0,29.55,SE,127,1.0,5.0,25,0.00,,,0.00,,2013-04-06 01:33:00,
2013-04-05 20:43:00,71.0,33.0,29.55,SE,127,1.0,5.0,25,0.00,,,0.00,,2013-04-06 01:43:00,
2013-04-05 20:52:00,69.0,37.0,29.55,SE,128,3.0,7.0,31,0.00,,,0.00,,2013-04-06 01:52:00,
2013-04-05 21:02:00,68.0,39.0,29.55,SE,134,1.0,12.0,34,0.00,,,0.00,,2013-04-06 02:02:00,
2013-04-05 21:12:00,68.0,39.0,29.55,SE,134,1.0,12.0,34,0.00,,,0.00,,2013-04-06 02:12:00,
2013-04-05 21:22:00,67.0,39.0,29.54,NW,307,1.0,10.0,36,0.00,,,0.00,,2013-04-06 02:22:00,
2013-04-05 21:32:00,67.0,39.0,29.54,ESE,103,8.0,15.0,36,0.00,,,0.00,,2013-04-06 02:32:00,
2013-04-05 21:42:00,67.0,39.0,29.54,ESE,103,8.0,15.0,36,0.00,,,0.00,,2013-04-06 02:42:00,
2013-04-05 21:52:00,66.0,40.0,29.54,SSW,194,7.0,15.0,38,0.00,,,0.00,,2013-04-06 02:52:00,
2013-04-05 22:02:00,65.0,40.0,29.54,SE,128,7.0,17.0,40,0.00,,,0.00,,2013-04-06 03:02:00,
2013-04-05 22:12:00,65.0,40.0,29.54,SE,128,7.0,17.0,40,0.00,,,0.00,,2013-04-06 03:12:00,
2013-04-05 22:21:00,62.0,40.0,29.54,SE,124,5.0,14.0,45,0.00,,,0.00,,2013-04-06 03:21:00,
2013-04-05 22:22:00,64.0,40.0,29.54,South,177,7.0,18.0,42,0.00,,,0.00,,2013-04-06 03:22:00,
2013-04-05 22:33:00,63.0,41.0,29.54,ESE,120,5.0,12.0,44,0.00,,,0.00,,2013-04-06 03:33:00,
2013-04-05 22:43:00,63.0,41.0,29.54,ESE,120,5.0,12.0,44,0.00,,,0.00,,2013-04-06 03:43:00,
2013-04-05 22:53:00,62.0,40.0,29.54,SE,124,5.0,14.0,45,0.00,,,0.00,,2013-04-06 03:53:00,
2013-04-05 23:03:00,62.0,40.0,29.54,SE,124,5.0,14.0,45,0.00,,,0.00,,2013-04-06 04:03:00,
2013-04-05 23:14:00,62.0,40.0,29.54,SE,124,5.0,14.0,45,0.00,,,0.00,,2013-04-06 04:14:00,